Time;durP1;ratioP1;P1;durP2;ratioP2;P2;SDS_P1;SDS_P2;PMS_P1;PMS_P2;Temp;Humidity;BMP_temperature;BMP_pressure;BME280_temperature;BME280_humidity;BME280_pressure;Samples;Min_cycle;Max_cycle;Signal;HPM_P1;HPM_P2
2022/12/27 00:01:47;;;;;;;;;4.67;4.00;;;;;8.14;100.00;102239.41;5006409;28;45840;-75
2022/12/27 00:04:12;;;;;;;;;6.00;5.00;;;;;8.11;100.00;102235.16;5001988;28;45419;-75
2022/12/27 00:06:38;;;;;;;;;6.00;3.67;;;;;8.15;100.00;102238.41;5014548;28;45671;-77
2022/12/27 00:09:05;;;;;;;;;3.00;3.00;;;;;8.21;100.00;102247.88;5007386;28;45313;-77
2022/12/27 00:11:31;;;;;;;;;6.33;5.67;;;;;8.19;100.00;102241.69;5015847;28;45248;-76
2022/12/27 00:14:01;;;;;;;;;6.67;5.00;;;;;8.28;100.00;102244.34;4995329;28;47028;-75
2022/12/27 00:16:26;;;;;;;;;6.00;6.00;;;;;8.27;100.00;102242.63;4997197;28;47323;-75
2022/12/27 00:18:52;;;;;;;;;10.00;5.00;;;;;8.25;100.00;102255.59;4989201;28;45697;-76
2022/12/27 00:21:19;;;;;;;;;5.67;4.00;;;;;8.24;100.00;102253.88;5007059;28;45598;-76
2022/12/27 00:23:47;;;;;;;;;4.67;3.33;;;;;8.27;100.00;102255.44;5006565;28;45299;-74
2022/12/27 00:26:34;;;;;;;;;5.67;5.67;;;;;8.29;100.00;102246.06;5000361;28;45369;-75
2022/12/27 00:29:00;;;;;;;;;4.00;3.00;;;;;8.30;100.00;102253.25;5010161;28;45433;-75
2022/12/27 00:31:28;;;;;;;;;6.00;2.33;;;;;8.28;100.00;102243.50;5010662;28;45618;-74
2022/12/27 00:33:56;;;;;;;;;2.00;2.00;;;;;8.27;100.00;102259.03;5011238;28;45362;-76
2022/12/27 00:36:24;;;;;;;;;3.00;3.00;;;;;8.25;100.00;102255.59;5013211;28;46387;-75
2022/12/27 00:38:51;;;;;;;;;4.00;4.00;;;;;8.22;100.00;102255.91;5007983;28;45921;-74
2022/12/27 00:41:17;;;;;;;;;7.67;5.33;;;;;8.19;100.00;102253.50;5003572;28;45871;-74
2022/12/27 00:43:42;;;;;;;;;5.33;3.33;;;;;8.01;100.00;102226.16;4999079;28;45772;-74
2022/12/27 00:46:08;;;;;;;;;8.00;6.67;;;;;8.13;100.00;102257.69;5010749;28;46266;-73
2022/12/27 00:48:34;;;;;;;;;3.67;3.67;;;;;8.15;100.00;102264.91;4989684;28;45479;-74
2022/12/27 00:51:02;;;;;;;;;4.00;4.00;;;;;8.04;100.00;102257.75;5014908;28;45835;-73
2022/12/27 00:53:29;;;;;;;;;6.67;4.33;;;;;8.10;100.00;102262.63;5014375;28;45374;-75
2022/12/27 00:55:55;;;;;;;;;4.67;4.67;;;;;8.12;100.00;102268.78;5014406;28;47012;-74
2022/12/27 00:58:20;;;;;;;;;6.33;5.00;;;;;8.10;100.00;102268.09;5013964;28;45880;-74
2022/12/27 01:00:47;;;;;;;;;4.67;4.67;;;;;8.05;100.00;102270.41;4997329;28;45672;-74
2022/12/27 01:03:13;;;;;;;;;5.00;4.00;;;;;8.06;100.00;102273.00;5022026;28;45848;-75
2022/12/27 01:05:38;;;;;;;;;3.00;3.00;;;;;8.02;100.00;102268.84;5014319;28;46474;-73
2022/12/27 01:08:04;;;;;;;;;5.00;5.00;;;;;8.03;100.00;102272.47;5008424;28;45744;-74
2022/12/27 01:10:30;;;;;;;;;4.00;3.00;;;;;7.99;100.00;102265.56;5011673;28;45335;-73
2022/12/27 01:12:56;;;;;;;;;4.33;4.00;;;;;8.00;100.00;102273.63;5021678;28;45501;-74
2022/12/27 01:15:21;;;;;;;;;6.00;5.00;;;;;7.99;100.00;102282.81;5008366;28;46397;-74
2022/12/27 01:17:46;;;;;;;;;5.00;3.00;;;;;8.00;100.00;102283.69;5010731;28;45636;-74
2022/12/27 01:20:12;;;;;;;;;3.00;3.00;;;;;7.95;100.00;102282.28;5006187;28;45906;-75
2022/12/27 01:22:37;;;;;;;;;3.00;2.00;;;;;8.00;100.00;102270.88;5014389;28;45388;-74
2022/12/27 01:25:03;;;;;;;;;3.33;2.33;;;;;8.02;100.00;102273.47;5009873;28;45500;-74
2022/12/27 01:27:29;;;;;;;;;4.33;3.00;;;;;8.05;100.00;102273.16;5000725;28;45424;-74
2022/12/27 01:29:54;;;;;;;;;4.33;3.00;;;;;8.05;100.00;102273.16;5021303;28;45644;-75
2022/12/27 01:32:20;;;;;;;;;4.33;3.00;;;;;8.09;100.00;102274.56;5003419;28;46393;-75
2022/12/27 01:34:46;;;;;;;;;2.00;2.00;;;;;8.13;100.00;102281.44;5013931;28;46326;-75
2022/12/27 01:37:11;;;;;;;;;3.00;3.00;;;;;8.15;100.00;102273.94;4996119;28;45744;-75
2022/12/27 01:39:37;;;;;;;;;3.67;3.00;;;;;8.21;100.00;102286.13;5014563;28;45461;-75
2022/12/27 01:44:52;;;;;;;;;3.67;2.00;;;;;8.26;100.00;102292.84;4994288;28;45818;-73
2022/12/27 01:47:33;;;;;;;;;3.00;3.00;;;;;8.27;100.00;102299.16;4997805;28;45570;-74
2022/12/27 01:50:06;;;;;;;;;4.00;4.00;;;;;8.33;100.00;102294.97;4996278;28;45668;-74
2022/12/27 01:52:40;;;;;;;;;5.00;4.00;;;;;8.33;100.00;102290.34;5013616;28;45933;-74
2022/12/27 01:55:32;;;;;;;;;2.00;2.00;;;;;8.34;100.00;102283.88;5013142;28;45851;-74
2022/12/27 01:58:05;;;;;;;;;3.00;3.00;;;;;8.39;100.00;102288.88;4994017;28;45653;-75
2022/12/27 02:00:31;;;;;;;;;4.00;2.00;;;;;8.41;100.00;102290.44;5007039;28;45324;-73
2022/12/27 02:02:58;;;;;;;;;8.00;3.00;;;;;8.43;100.00;102287.56;4994087;28;46081;-74
2022/12/27 02:05:24;;;;;;;;;5.00;3.00;;;;;8.39;100.00;102294.34;4993695;28;46469;-75
2022/12/27 02:07:56;;;;;;;;;2.33;2.33;;;;;8.39;100.00;102306.13;4994379;28;45418;-74
2022/12/27 02:10:24;;;;;;;;;2.00;1.00;;;;;8.39;100.00;102305.28;4995593;28;45371;-74
2022/12/27 02:12:49;;;;;;;;;5.00;3.00;;;;;8.37;100.00;102307.28;4989608;28;45375;-73
2022/12/27 02:15:15;;;;;;;;;7.00;4.67;;;;;8.37;100.00;102302.69;4995017;28;45547;-74
2022/12/27 02:17:40;;;;;;;;;6.00;4.00;;;;;8.33;100.00;102298.53;4989120;28;46560;-73
2022/12/27 02:20:21;;;;;;;;;4.00;2.67;;;;;8.33;100.00;102305.91;5001148;28;45407;-74
2022/12/27 02:25:55;;;;;;;;;3.33;3.33;;;;;8.27;100.00;102301.91;5005844;28;45599;-73
2022/12/27 02:28:41;;;;;;;;;5.00;4.00;;;;;8.25;100.00;102301.22;4987964;28;45436;-72
2022/12/27 02:31:21;;;;;;;;;4.33;3.33;;;;;8.26;100.00;102302.91;4999612;28;46754;-74
2022/12/27 02:33:51;;;;;;;;;3.33;2.00;;;;;8.27;100.00;102313.69;4994883;28;45536;-74
2022/12/27 02:36:29;;;;;;;;;5.00;4.00;;;;;8.21;100.00;102306.13;5000872;28;46323;-75
2022/12/27 02:38:58;;;;;;;;;4.00;3.00;;;;;8.23;100.00;102298.63;5017780;28;45714;-73
2022/12/27 02:53:05;;;;;;;;;4.67;4.00;;;;;8.24;100.00;102300.34;5012877;28;45402;-75
2022/12/27 02:59:09;;;;;;;;;1.67;1.67;;;;;8.26;100.00;102302.91;5011446;28;45439;-73
2022/12/27 03:05:01;;;;;;;;;4.33;3.00;;;;;8.26;100.00;102322.94;5011019;28;45418;-73
2022/12/27 03:07:45;;;;;;;;;5.00;5.00;;;;;8.26;100.00;102332.97;5002772;28;45516;-74
2022/12/27 03:16:26;;;;;;;;;3.00;2.00;;;;;8.31;100.00;102323.31;4999830;28;45397;-74
2022/12/27 03:19:03;;;;;;;;;5.00;3.00;;;;;8.30;100.00;102320.72;5012208;28;45810;-74
2022/12/27 03:27:30;;;;;;;;;3.67;3.67;;;;;8.25;100.00;102298.47;4941514;28;45833;-73
2022/12/27 03:33:13;;;;;;;;;3.33;3.33;;;;;8.31;100.00;102320.56;5004269;28;45631;-74
2022/12/27 03:38:46;;;;;;;;;3.50;3.50;;;;;8.28;100.00;102322.78;5012899;28;45438;-74
2022/12/27 03:44:23;;;;;;;;;2.00;2.00;;;;;8.32;100.00;102318.69;5016115;28;45725;-75
2022/12/27 03:46:56;;;;;;;;;3.67;3.67;;;;;8.33;100.00;102319.56;5015898;28;45392;-71
2022/12/27 03:49:47;;;;;;;;;5.00;3.00;;;;;8.33;100.00;102316.84;4995327;28;45382;-73
2022/12/27 03:52:19;;;;;;;;;3.67;3.67;;;;;8.37;100.00;102320.94;5006961;28;45448;-76
2022/12/27 03:54:48;;;;;;;;;6.00;4.00;;;;;8.35;100.00;102323.00;4995909;28;45872;-76
2022/12/27 03:57:18;;;;;;;;;3.00;3.00;;;;;8.32;100.00;102321.41;4996687;28;45361;-73
2022/12/27 03:59:44;;;;;;;;;4.67;3.67;;;;;8.35;100.00;102325.72;4997131;28;45387;-75
2022/12/27 04:02:10;;;;;;;;;6.00;4.00;;;;;8.37;100.00;102327.31;5003713;28;45900;-74
2022/12/27 04:04:35;;;;;;;;;5.00;4.00;;;;;8.42;100.00;102322.22;5009807;28;46584;-74
2022/12/27 04:07:02;;;;;;;;;4.33;3.00;;;;;8.40;100.00;102323.41;4996019;28;45700;-73
2022/12/27 04:36:48;;;;;;;;;4.67;3.67;;;;;8.29;100.00;102333.53;5018015;28;45889;-72
2022/12/27 04:39:14;;;;;;;;;4.00;4.00;;;;;8.30;100.00;102328.94;4993847;28;45665;-73
2022/12/27 04:55:29;;;;;;;;;7.33;5.67;;;;;8.21;100.00;102325.25;4994840;28;45337;-72
2022/12/27 04:57:56;;;;;;;;;8.33;6.00;;;;;8.17;100.00;102318.34;4995730;28;45404;-73
2022/12/27 05:03:12;;;;;;;;;6.33;5.33;;;;;8.13;100.00;102322.44;5001534;28;45390;-74
2022/12/27 05:05:38;;;;;;;;;4.33;3.67;;;;;8.05;100.00;102320.44;4996583;28;46087;-74
2022/12/27 05:16:18;;;;;;;;;3.00;3.00;;;;;8.20;100.00;102331.72;4996143;28;45560;-73
2022/12/27 05:18:44;;;;;;;;;5.00;3.00;;;;;8.15;100.00;102312.19;4996899;28;46263;-74
2022/12/27 05:21:09;;;;;;;;;4.00;4.00;;;;;8.20;100.00;102322.66;5002465;28;45492;-73
2022/12/27 05:26:27;;;;;;;;;3.33;3.33;;;;;8.20;100.00;102318.03;4996397;28;45591;-73
2022/12/27 05:28:55;;;;;;;;;6.67;3.00;;;;;8.20;100.00;102317.19;4996995;28;45818;-74
2022/12/27 05:31:22;;;;;;;;;3.67;2.67;;;;;8.23;100.00;102315.03;4995967;28;45758;-73
2022/12/27 05:33:48;;;;;;;;;4.00;4.00;;;;;8.23;100.00;102312.31;5008143;28;45458;-73
2022/12/27 05:36:14;;;;;;;;;7.33;5.00;;;;;8.25;100.00;102314.88;5004814;28;45343;-75
2022/12/27 05:38:39;;;;;;;;;3.00;3.00;;;;;8.28;100.00;102306.38;5013091;28;46969;-73
2022/12/27 05:41:05;;;;;;;;;4.00;4.00;;;;;8.25;100.00;102310.25;5014612;28;45459;-73
2022/12/27 05:43:31;;;;;;;;;3.67;3.67;;;;;8.25;100.00;102312.16;5013935;28;45447;-72
2022/12/27 05:46:09;;;;;;;;;3.33;3.33;;;;;8.20;100.00;102306.28;5019705;28;46235;-73
2022/12/27 05:48:35;;;;;;;;;7.67;5.33;;;;;8.31;100.00;102306.06;5031307;28;47578;-77
2022/12/27 05:51:11;;;;;;;;;9.00;5.00;;;;;8.29;100.00;102305.34;5016038;28;45619;-74
2022/12/27 05:53:37;;;;;;;;;5.33;4.00;;;;;8.34;100.00;102305.75;5014323;28;45380;-73
2022/12/27 05:56:03;;;;;;;;;7.00;5.00;;;;;8.37;100.00;102307.28;4994045;28;47113;-73
2022/12/27 05:58:29;;;;;;;;;3.00;3.00;;;;;8.30;100.00;102291.50;5013399;28;46013;-75
2022/12/27 06:00:54;;;;;;;;;4.00;4.00;;;;;8.38;100.00;102298.91;5011227;28;45441;-74
2022/12/27 06:03:20;;;;;;;;;3.67;2.67;;;;;8.43;100.00;102293.00;5002059;28;45456;-75
2022/12/27 06:05:46;;;;;;;;;5.33;5.33;;;;;8.32;100.00;102269.47;5026655;28;45685;-76
2022/12/27 06:08:12;;;;;;;;;6.67;4.00;;;;;8.38;100.00;102284.41;5011296;28;45653;-73
2022/12/27 06:10:38;;;;;;;;;5.67;4.67;;;;;8.38;100.00;102281.66;5009609;28;45274;-74
2022/12/27 06:13:04;;;;;;;;;6.67;5.33;;;;;8.36;100.00;102284.56;5013682;28;45862;-75
2022/12/27 06:15:30;;;;;;;;;3.33;3.33;;;;;8.31;100.00;102286.91;5010426;28;45678;-75
2022/12/27 06:17:56;;;;;;;;;6.00;5.00;;;;;8.32;100.00;102288.63;5008728;28;47267;-77
2022/12/27 06:20:22;;;;;;;;;5.00;5.00;;;;;8.34;100.00;102296.66;5021161;28;45703;-75
2022/12/27 06:22:47;;;;;;;;;4.67;4.67;;;;;8.35;100.00;102295.66;5012122;28;45661;-75
2022/12/27 06:25:13;;;;;;;;;8.00;5.00;;;;;8.33;100.00;102297.69;5009708;28;46119;-73
2022/12/27 06:27:39;;;;;;;;;4.67;4.67;;;;;8.31;100.00;102295.97;5012641;28;45737;-73
2022/12/27 06:30:06;;;;;;;;;7.00;7.00;;;;;8.30;100.00;102299.72;5012284;28;45326;-73
2022/12/27 06:32:33;;;;;;;;;6.00;5.00;;;;;8.34;100.00;102297.53;5008647;28;45484;-74
2022/12/27 06:34:58;;;;;;;;;4.33;4.00;;;;;8.42;100.00;102296.75;5024330;28;45750;-76
2022/12/27 06:37:23;;;;;;;;;4.67;4.00;;;;;8.43;100.00;102295.75;5011938;28;46314;-74
2022/12/27 06:39:49;;;;;;;;;5.33;4.00;;;;;8.44;100.00;102286.53;5011697;28;45666;-75
2022/12/27 06:42:14;;;;;;;;;9.33;4.00;;;;;8.46;100.00;102290.00;5013172;28;45606;-76
2022/12/27 06:44:40;;;;;;;;;7.00;3.67;;;;;8.48;100.00;102293.44;5012693;28;45488;-76
2022/12/27 06:47:05;;;;;;;;;6.00;6.00;;;;;8.50;100.00;102291.38;5013280;28;45818;-73
2022/12/27 06:49:31;;;;;;;;;9.67;6.67;;;;;8.50;100.00;102296.00;5012417;28;45401;-73
2022/12/27 06:51:56;;;;;;;;;4.00;4.00;;;;;8.50;100.00;102294.13;5012598;28;45431;-74
2022/12/27 06:54:22;;;;;;;;;4.67;4.67;;;;;8.52;100.00;102294.84;4998979;28;45422;-73
2022/12/27 06:56:47;;;;;;;;;8.67;3.67;;;;;8.56;100.00;102306.31;4993758;28;45746;-74
2022/12/27 06:59:13;;;;;;;;;8.33;6.33;;;;;8.57;100.00;102306.16;4976746;28;45875;-73
2022/12/27 07:01:38;;;;;;;;;8.67;5.67;;;;;8.56;100.00;102298.09;5014317;28;46004;-74
2022/12/27 07:04:04;;;;;;;;;3.00;3.00;;;;;8.59;100.00;102295.06;5018200;28;45888;-73
2022/12/27 07:06:31;;;;;;;;;9.00;7.00;;;;;8.62;100.00;102295.63;4999027;28;46900;-73
2022/12/27 07:08:58;;;;;;;;;6.33;6.00;;;;;8.63;100.00;102291.00;4998952;28;45725;-71
2022/12/27 07:11:24;;;;;;;;;9.33;6.00;;;;;8.62;100.00;102292.88;5012654;28;45651;-73
2022/12/27 07:13:52;;;;;;;;;4.67;4.33;;;;;8.64;100.00;102301.78;5000307;28;45664;-73
2022/12/27 07:16:21;;;;;;;;;8.00;5.00;;;;;8.64;100.00;102298.19;4995546;28;46261;-73
2022/12/27 07:18:47;;;;;;;;;6.00;6.00;;;;;8.52;100.00;102283.91;4995195;28;46559;-73
2022/12/27 07:21:15;;;;;;;;;7.00;6.00;;;;;8.64;100.00;102304.50;5005382;28;45659;-75
2022/12/27 07:23:40;;;;;;;;;8.67;6.00;;;;;8.51;100.00;102282.16;4994846;28;45800;-73
2022/12/27 07:26:15;;;;;;;;;8.00;5.00;;;;;8.69;100.00;102312.25;4976383;28;46430;-74
2022/12/27 07:28:41;;;;;;;;;6.33;6.00;;;;;8.65;100.00;102299.88;5009636;28;45824;-74
2022/12/27 07:31:12;;;;;;;;;9.67;5.00;;;;;8.76;100.00;102315.22;4993470;28;45798;-74
2022/12/27 07:33:38;;;;;;;;;12.00;7.67;;;;;8.75;100.00;102308.88;4989169;28;46104;-74
2022/12/27 07:36:06;;;;;;;;;8.00;6.67;;;;;8.77;100.00;102308.72;5005678;28;46296;-73
2022/12/27 07:38:31;;;;;;;;;11.00;7.00;;;;;8.77;100.00;102314.19;4996242;28;45499;-74
2022/12/27 07:40:59;;;;;;;;;6.00;6.00;;;;;8.79;100.00;102312.16;5012359;28;45591;-73
2022/12/27 07:43:28;;;;;;;;;5.00;5.00;;;;;8.83;100.00;102313.53;5012439;28;45340;-72
2022/12/27 07:45:53;;;;;;;;;6.00;6.00;;;;;8.80;100.00;102303.78;5023352;28;45542;-73
2022/12/27 07:48:18;;;;;;;;;8.00;6.67;;;;;8.87;100.00;102309.47;5013495;28;45430;-73
2022/12/27 07:50:52;;;;;;;;;7.00;5.67;;;;;8.92;100.00;102317.19;5006115;28;45366;-73
2022/12/27 07:53:18;;;;;;;;;4.00;2.00;;;;;8.88;100.00;102305.72;5011989;28;45484;-74
2022/12/27 07:55:45;;;;;;;;;8.67;6.00;;;;;8.95;100.00;102317.75;5011954;28;45924;-74
2022/12/27 07:58:11;;;;;;;;;6.33;5.00;;;;;8.95;100.00;102315.03;5010885;28;45455;-73
2022/12/27 08:00:37;;;;;;;;;7.00;4.67;;;;;9.04;100.00;102326.88;5011312;28;45437;-73
2022/12/27 08:03:02;;;;;;;;;7.33;5.33;;;;;9.02;100.00;102316.09;5011703;28;45509;-73
2022/12/27 08:05:28;;;;;;;;;5.67;4.67;;;;;9.02;100.00;102312.50;5011756;28;46304;-73
2022/12/27 08:07:54;;;;;;;;;8.00;6.00;;;;;9.02;100.00;102305.13;5023539;28;45682;-74
2022/12/27 08:10:20;;;;;;;;;7.67;7.00;;;;;9.15;100.00;102312.09;5011492;28;45371;-74
2022/12/27 08:12:45;;;;;;;;;6.33;4.00;;;;;9.16;100.00;102313.78;4991314;28;46350;-74
2022/12/27 08:15:11;;;;;;;;;8.00;7.00;;;;;9.15;100.00;102306.59;5008955;28;45400;-75
2022/12/27 08:17:36;;;;;;;;;7.33;6.67;;;;;9.21;100.00;102316.91;5032776;28;45365;-73
2022/12/27 08:20:02;;;;;;;;;7.00;5.67;;;;;9.22;100.00;102320.50;5021816;28;45337;-73
2022/12/27 08:22:27;;;;;;;;;7.00;6.00;;;;;9.24;100.00;102323.94;5014125;28;45931;-74
2022/12/27 08:24:54;;;;;;;;;8.00;8.00;;;;;9.29;100.00;102322.41;5013676;28;45778;-73
2022/12/27 08:27:22;;;;;;;;;7.33;7.00;;;;;9.31;100.00;102325.88;5014431;28;45504;-75
2022/12/27 08:29:47;;;;;;;;;8.00;6.67;;;;;9.39;100.00;102324.22;5014102;28;45351;-74
2022/12/27 08:32:13;;;;;;;;;10.67;8.00;;;;;9.42;100.00;102319.25;5009030;28;45884;-74
2022/12/27 08:34:38;;;;;;;;;11.33;6.33;;;;;9.45;100.00;102318.94;5013498;28;45471;-70
2022/12/27 08:37:04;;;;;;;;;8.33;8.33;;;;;9.42;100.00;102307.47;5024851;28;45596;-74
2022/12/27 08:39:29;;;;;;;;;10.00;6.00;;;;;9.53;100.00;102327.19;4997983;28;45336;-75
2022/12/27 08:41:55;;;;;;;;;8.67;7.00;;;;;9.57;100.00;102327.72;5014618;28;45660;-74
2022/12/27 08:44:21;;;;;;;;;9.33;7.00;;;;;9.61;100.00;102322.78;5014854;28;45390;-74
2022/12/27 08:46:46;;;;;;;;;10.00;7.33;;;;;9.66;100.00;102334.97;4994378;28;45834;-73
2022/12/27 08:49:11;;;;;;;;;10.67;8.33;;;;;9.74;100.00;102327.81;5015131;28;45902;-75
2022/12/27 08:51:37;;;;;;;;;10.67;8.00;;;;;9.67;100.00;102328.47;4997643;28;45672;-73
2022/12/27 08:54:03;;;;;;;;;10.67;6.00;;;;;9.54;100.00;102331.66;4995125;28;47046;-74
2022/12/27 08:56:28;;;;;;;;;9.33;6.67;;;;;9.34;100.00;102313.72;5008017;28;46491;-75
2022/12/27 08:58:53;;;;;;;;;6.67;6.67;;;;;9.38;100.00;102323.34;4996512;28;45967;-74
2022/12/27 09:01:19;;;;;;;;;8.00;5.67;;;;;9.46;100.00;102336.22;5002244;28;45421;-74
2022/12/27 09:03:45;;;;;;;;;9.00;6.67;;;;;9.52;100.00;102341.03;5014401;28;46226;-72
2022/12/27 09:06:16;;;;;;;;;6.67;5.67;;;;;9.58;100.00;102345.88;5011568;28;45680;-74
2022/12/27 09:08:43;;;;;;;;;5.00;5.00;;;;;9.61;100.00;102334.59;5007192;28;45736;-75
2022/12/27 09:11:12;;;;;;;;;7.67;7.67;;;;;9.76;100.00;102354.03;4999398;28;45820;-75
2022/12/27 09:13:38;;;;;;;;;9.00;6.00;;;;;9.83;100.00;102349.59;5008152;28;46149;-76
2022/12/27 09:16:14;;;;;;;;;7.33;7.00;;;;;9.90;100.00;102353.38;4998823;28;45937;-74
2022/12/27 09:18:41;;;;;;;;;7.33;5.67;;;;;9.96;100.00;102354.63;4998303;28;45650;-74
2022/12/27 09:21:11;;;;;;;;;11.67;7.67;;;;;10.06;100.00;102354.50;4996670;28;45251;-75
2022/12/27 09:23:37;;;;;;;;;8.00;6.00;;;;;10.18;100.00;102352.28;4996099;28;46418;-74
2022/12/27 09:26:11;;;;;;;;;7.00;5.67;;;;;10.32;100.00;102359.03;4996415;28;45778;-74
2022/12/27 09:28:37;;;;;;;;;7.00;6.00;;;;;10.48;100.00;102356.34;5000073;28;45702;-74
2022/12/27 09:31:03;;;;;;;;;6.67;6.33;;;;;10.80;100.00;102362.91;4996316;28;45405;-75
2022/12/27 09:33:29;;;;;;;;;8.67;6.00;;;;;11.39;100.00;102356.34;5005787;28;45370;-74
2022/12/27 09:36:03;;;;;;;;;9.67;9.67;;;;;11.94;100.00;102371.16;5006995;28;45502;-76
2022/12/27 09:38:29;;;;;;;;;10.00;10.00;;;;;12.32;100.00;102371.31;5011325;28;45352;-75
2022/12/27 09:40:58;;;;;;;;;8.67;7.00;;;;;12.49;100.00;102367.44;5012973;28;45488;-74
2022/12/27 09:43:54;;;;;;;;;12.67;10.00;;;;;12.54;100.00;102377.88;5028800;28;46604;-75
2022/12/27 09:46:27;;;;;;;;;10.00;9.67;;;;;12.64;100.00;102367.50;4968606;28;45618;-75
2022/12/27 09:48:55;;;;;;;;;11.33;9.33;;;;;12.70;100.00;102354.91;5013601;28;45645;-75
2022/12/27 09:51:27;;;;;;;;;9.33;6.33;;;;;12.74;100.00;102359.00;5012604;28;45788;-74
2022/12/27 09:54:12;;;;;;;;;10.67;8.67;;;;;12.72;100.00;102363.84;5013899;28;45688;-73
2022/12/27 09:56:38;;;;;;;;;11.33;10.00;;;;;12.50;100.00;102333.38;5013000;28;45420;-74
2022/12/27 09:59:45;;;;;;;;;15.67;7.67;;;;;12.82;100.00;102364.44;5012498;28;45884;-76
2022/12/27 10:02:25;;;;;;;;;9.00;7.67;;;;;13.27;100.00;102359.06;4951833;28;45512;-75
2022/12/27 10:04:53;;;;;;;;;8.33;7.00;;;;;13.72;100.00;102348.13;4998305;28;45413;-76
2022/12/27 10:07:40;;;;;;;;;11.67;7.33;;;;;14.13;100.00;102361.38;5012389;28;45352;-76
2022/12/27 10:10:25;;;;;;;;;6.33;6.33;;;;;14.07;100.00;102351.09;5021019;28;45357;-75
2022/12/27 10:13:25;;;;;;;;;11.00;7.33;;;;;13.95;100.00;102348.88;5011348;28;45690;-75
2022/12/27 10:16:03;;;;;;;;;11.67;7.67;;;;;13.92;100.00;102346.50;5010450;28;46323;-76
2022/12/27 10:18:39;;;;;;;;;11.33;11.33;;;;;14.24;100.00;102335.22;5013506;28;45440;-76
2022/12/27 10:21:14;;;;;;;;;9.67;7.00;;;;;14.63;100.00;102340.34;5013129;28;45561;-76
2022/12/27 10:23:46;;;;;;;;;8.67;7.67;;;;;15.17;100.00;102338.06;5022109;28;45447;-74
2022/12/27 10:26:19;;;;;;;;;7.67;4.67;;;;;15.58;100.00;102331.72;5019958;28;46522;-73
2022/12/27 10:28:49;;;;;;;;;6.33;6.33;;;;;15.95;100.00;102331.56;5014992;28;45477;-73
2022/12/27 10:31:20;;;;;;;;;10.00;7.33;;;;;16.24;100.00;102325.72;5009967;28;45359;-74
2022/12/27 10:33:47;;;;;;;;;9.00;7.67;;;;;16.45;100.00;102318.28;5004523;28;45694;-75
2022/12/27 10:36:21;;;;;;;;;8.33;8.33;;;;;16.39;100.00;102333.84;5002484;28;45455;-74
2022/12/27 10:38:47;;;;;;;;;7.67;5.33;;;;;15.93;100.00;102333.66;5001403;28;45384;-75
2022/12/27 10:41:29;;;;;;;;;6.67;5.00;;;;;15.71;100.00;102333.72;5006524;28;45626;-75
2022/12/27 10:43:54;;;;;;;;;9.33;6.67;;;;;15.88;100.00;102335.16;4997430;28;45651;-76
2022/12/27 10:46:29;;;;;;;;;8.00;7.00;;;;;16.02;100.00;102330.50;5020854;28;45726;-74
2022/12/27 10:49:17;;;;;;;;;6.67;4.67;;;;;16.10;100.00;102323.09;5013536;28;45740;-75
2022/12/27 10:51:44;;;;;;;;;8.33;8.33;;;;;16.04;100.00;102331.16;5012616;28;45387;-74
2022/12/27 10:54:26;;;;;;;;;9.00;7.00;;;;;16.11;100.00;102333.09;5013011;28;45597;-75
2022/12/27 10:56:52;;;;;;;;;7.00;7.00;;;;;16.19;100.00;102328.22;5001285;28;46087;-75
2022/12/27 10:59:24;;;;;;;;;8.33;7.33;;;;;16.21;100.00;102339.09;4993373;28;45324;-76
2022/12/27 11:01:58;;;;;;;;;9.67;8.33;;;;;16.26;100.00;102331.03;5012628;28;45518;-75
2022/12/27 11:04:24;;;;;;;;;10.67;6.00;;;;;16.21;100.00;102325.25;5011106;28;45450;-76
2022/12/27 11:07:00;;;;;;;;;4.00;4.00;;;;;16.20;100.00;102327.19;5012153;28;46629;-75
2022/12/27 11:09:27;;;;;;;;;7.67;5.00;;;;;16.12;100.00;102327.34;5010547;28;45481;-75
2022/12/27 11:12:19;;;;;;;;;6.00;6.00;;;;;15.97;100.00;102327.53;5012703;28;45502;-75
2022/12/27 11:15:12;;;;;;;;;13.67;10.33;;;;;15.94;100.00;102318.75;5001740;28;45689;-74
2022/12/27 11:17:41;;;;;;;;;12.67;7.33;;;;;15.90;100.00;102312.81;5011470;28;46605;-76
2022/12/27 11:20:30;;;;;;;;;5.00;5.00;;;;;15.74;100.00;102300.13;5011432;28;45397;-75
2022/12/27 11:22:58;;;;;;;;;4.67;3.00;;;;;15.69;100.00;102299.91;5002585;28;45453;-75
2022/12/27 11:25:26;;;;;;;;;11.00;6.67;;;;;15.61;100.00;102298.13;5009971;28;45712;-75
2022/12/27 11:27:56;;;;;;;;;6.33;4.00;;;;;15.52;100.00;102291.94;5010277;28;45479;-76
2022/12/27 11:30:29;;;;;;;;;8.33;6.33;;;;;15.32;100.00;102269.69;5013273;28;45463;-74
2022/12/27 11:33:00;;;;;;;;;7.67;4.33;;;;;15.30;100.00;102271.81;5004106;28;45391;-76
2022/12/27 11:35:26;;;;;;;;;6.00;3.00;;;;;15.20;100.00;102264.94;5006629;28;45563;-75
2022/12/27 11:37:51;;;;;;;;;6.33;3.33;;;;;14.98;100.00;102246.53;5006607;28;45824;-74
2022/12/27 11:40:25;;;;;;;;;10.67;7.67;;;;;14.94;100.00;102245.22;5011397;28;45700;-74
2022/12/27 11:43:00;;;;;;;;;14.33;12.67;;;;;14.95;100.00;102260.72;5012594;28;45439;-74
2022/12/27 11:45:43;;;;;;;;;47.67;42.33;;;;;14.86;100.00;102250.88;4999677;28;45304;-74
2022/12/27 11:48:33;;;;;;;;;39.33;35.00;;;;;14.76;100.00;102245.72;5014679;28;45805;-74
2022/12/27 11:51:19;;;;;;;;;59.75;46.00;;;;;14.73;100.00;102251.63;5014903;28;45841;-74
2022/12/27 11:53:59;;;;;;;;;21.33;14.00;;;;;14.69;100.00;102250.31;5004404;28;45420;-75
2022/12/27 11:56:31;;;;;;;;;33.67;26.67;;;;;14.62;100.00;102249.41;5026526;28;45343;-74
2022/12/27 11:59:36;;;;;;;;;4.33;3.67;;;;;14.52;100.00;102255.25;5014875;28;45827;-73
2022/12/27 12:02:29;;;;;;;;;10.33;8.33;;;;;14.45;100.00;102259.84;4986316;28;45462;-75
2022/12/27 12:05:10;;;;;;;;;56.00;47.00;;;;;14.38;100.00;102251.50;5012682;28;45546;-74
2022/12/27 12:07:35;;;;;;;;;8.33;7.00;;;;;14.30;100.00;102255.25;5016279;28;45380;-74
2022/12/27 12:10:27;;;;;;;;;14.67;14.67;;;;;14.18;100.00;102242.19;5014044;28;45422;-74
2022/12/27 12:13:27;;;;;;;;;9.00;8.33;;;;;14.05;100.00;102245.63;4995310;28;45428;-74
2022/12/27 12:16:21;;;;;;;;;10.67;8.33;;;;;13.94;100.00;102242.31;5011836;28;45384;-75
2022/12/27 12:19:17;;;;;;;;;9.67;8.67;;;;;13.83;100.00;102250.25;5010641;28;45909;-75
2022/12/27 12:21:51;;;;;;;;;8.00;8.00;;;;;13.73;100.00;102256.09;4995036;28;46242;-75
2022/12/27 12:24:26;;;;;;;;;10.67;5.00;;;;;13.65;100.00;102245.16;4985614;28;45794;-74
2022/12/27 12:27:24;;;;;;;;;3.00;3.00;;;;;13.56;100.00;102236.13;5013342;28;45635;-74
2022/12/27 12:30:27;;;;;;;;;1.00;1.00;;;;;13.48;100.00;102226.06;5010745;28;45479;-73
2022/12/27 12:33:38;;;;;;;;;2.67;1.67;;;;;13.38;100.00;102226.38;5002906;28;46344;-75
2022/12/27 12:36:06;;;;;;;;;1.67;0.67;;;;;13.25;100.00;102215.97;4994463;28;45374;-73
2022/12/27 12:38:57;;;;;;;;;2.00;1.33;;;;;13.10;100.00;102206.88;5007234;28;45373;-74
2022/12/27 12:42:01;;;;;;;;;2.67;2.67;;;;;12.91;100.00;102205.53;5014881;28;45676;-73
2022/12/27 12:44:32;;;;;;;;;2.00;2.00;;;;;12.82;100.00;102207.50;4918482;28;47552;-76
2022/12/27 12:47:17;;;;;;;;;4.33;3.67;;;;;12.82;100.00;102203.91;4992408;28;45799;-74
2022/12/27 12:50:09;;;;;;;;;4.00;4.00;;;;;12.79;100.00;102201.53;5013854;28;45926;-73
2022/12/27 12:52:37;;;;;;;;;2.00;2.00;;;;;12.74;100.00;102196.59;5003779;28;45618;-74
2022/12/27 12:55:20;;;;;;;;;4.00;4.00;;;;;12.69;100.00;102190.78;5013468;28;46180;-74
2022/12/27 12:58:15;;;;;;;;;3.00;3.00;;;;;12.69;100.00;102182.53;5012772;28;45603;-76
2022/12/27 13:00:53;;;;;;;;;2.67;1.67;;;;;12.65;100.00;102181.19;5013545;28;45960;-73
2022/12/27 13:03:39;;;;;;;;;1.33;0.67;;;;;12.61;100.00;102171.59;5002529;28;45902;-74
2022/12/27 13:06:33;;;;;;;;;2.67;2.67;;;;;12.58;100.00;102172.00;5022830;28;47359;-73
2022/12/27 13:09:44;;;;;;;;;4.67;3.67;;;;;12.57;100.00;102173.88;5004807;28;45681;-74
2022/12/27 13:12:18;;;;;;;;;0.00;0.00;;;;;12.63;100.00;102161.25;4975345;28;45798;-74
2022/12/27 13:14:47;;;;;;;;;2.00;2.00;;;;;12.66;100.00;102161.72;5015450;28;45957;-74
2022/12/27 13:17:40;;;;;;;;;2.67;2.67;;;;;12.67;100.00;102159.84;5015008;28;46386;-73
2022/12/27 13:20:17;;;;;;;;;1.67;1.67;;;;;12.59;100.00;102144.28;5014496;28;45644;-72
2022/12/27 13:23:01;;;;;;;;;4.33;2.67;;;;;12.67;100.00;102162.59;5006489;28;45369;-74